createdAt,value
2022-08-14T00:02:01.448Z,6.47
2022-08-14T00:04:35.862Z,6.07
2022-08-14T00:07:14.055Z,6.13
2022-08-14T00:09:55.614Z,5.83
2022-08-14T00:12:47.905Z,6.70
2022-08-14T00:15:21.779Z,6.07
2022-08-14T00:17:53.372Z,8.30
2022-08-14T00:20:31.181Z,13.17
2022-08-14T00:23:17.406Z,7.47
2022-08-14T00:25:59.102Z,6.57
2022-08-14T00:28:36.746Z,6.50
2022-08-14T00:31:07.796Z,7.20
2022-08-14T00:33:39.283Z,5.67
2022-08-14T00:36:37.319Z,6.17
2022-08-14T00:39:18.122Z,6.70
2022-08-14T00:41:47.425Z,6.27
2022-08-14T00:44:21.560Z,6.10
2022-08-14T00:47:00.888Z,5.70
2022-08-14T00:49:30.233Z,7.10
2022-08-14T00:52:00.408Z,6.37
2022-08-14T00:54:29.831Z,7.87
2022-08-14T00:56:58.444Z,6.17
2022-08-14T00:59:28.606Z,6.60
2022-08-14T01:01:59.134Z,6.10
2022-08-14T01:04:38.102Z,6.13
2022-08-14T01:07:20.526Z,6.23
2022-08-14T01:09:52.763Z,6.23
2022-08-14T01:12:26.318Z,6.47
2022-08-14T01:14:58.233Z,7.20
2022-08-14T01:17:50.209Z,6.13
2022-08-14T01:20:39.422Z,6.67
2022-08-14T01:23:16.349Z,7.47
2022-08-14T01:25:47.802Z,6.10
2022-08-14T01:28:47.067Z,7.27
2022-08-14T01:31:05.994Z,6.13
2022-08-14T01:33:52.190Z,6.33
2022-08-14T01:36:23.723Z,6.43
2022-08-14T01:38:55.339Z,6.23
2022-08-14T01:41:29.943Z,6.87
2022-08-14T01:44:01.624Z,5.70
2022-08-14T01:46:33.343Z,6.17
2022-08-14T01:49:07.547Z,5.97
2022-08-14T01:51:36.456Z,5.77
2022-08-14T01:54:14.261Z,6.70
2022-08-14T01:56:44.801Z,6.30
2022-08-14T01:59:21.787Z,6.00
2022-08-14T02:01:58.677Z,6.20
2022-08-14T02:04:40.762Z,6.60
2022-08-14T02:07:34.683Z,5.90
2022-08-14T02:10:13.271Z,6.30
2022-08-14T02:12:54.182Z,6.07
2022-08-14T02:15:25.790Z,6.33
2022-08-14T02:17:54.387Z,6.40
2022-08-14T02:20:23.513Z,6.90
2022-08-14T02:22:54.964Z,7.03
2022-08-14T02:25:24.700Z,7.00
2022-08-14T02:28:22.350Z,6.70
2022-08-14T02:30:46.104Z,6.50
2022-08-14T02:33:14.239Z,6.20
2022-08-14T02:35:43.390Z,7.47
2022-08-14T02:38:30.585Z,6.90
2022-08-14T02:41:01.156Z,6.30
2022-08-14T02:43:37.423Z,7.57
2022-08-14T02:46:20.444Z,5.73
2022-08-14T02:49:04.825Z,6.60
2022-08-14T02:51:34.898Z,6.40
2022-08-14T02:54:06.797Z,7.40
2022-08-14T02:57:39.197Z,6.80
2022-08-14T02:59:29.627Z,6.60
2022-08-14T03:02:03.328Z,7.53
2022-08-14T03:04:32.960Z,7.83
2022-08-14T03:07:07.215Z,6.70
2022-08-14T03:09:42.164Z,7.30
2022-08-14T03:12:32.212Z,7.50
2022-08-14T03:15:03.743Z,7.40
2022-08-14T03:17:56.290Z,7.60
2022-08-14T03:20:22.636Z,7.03
2022-08-14T03:22:53.619Z,7.17
2022-08-14T03:25:23.110Z,7.90
2022-08-14T03:27:58.030Z,7.60
2022-08-14T03:30:39.777Z,7.70
2022-08-14T03:33:12.162Z,7.47
2022-08-14T03:35:59.794Z,9.20
2022-08-14T03:39:10.617Z,8.33
2022-08-14T03:41:23.196Z,7.30
2022-08-14T03:43:57.757Z,7.60
2022-08-14T03:46:51.885Z,7.50
2022-08-14T03:49:24.324Z,8.30
2022-08-14T03:51:57.685Z,7.80
2022-08-14T03:54:26.316Z,7.80
2022-08-14T03:56:54.996Z,7.77
2022-08-14T03:59:24.429Z,6.97
2022-08-14T04:02:01.379Z,6.87
2022-08-14T04:04:30.818Z,7.33
2022-08-14T04:07:00.396Z,6.97
2022-08-14T04:09:29.323Z,6.80
2022-08-14T04:11:58.307Z,7.17
2022-08-14T04:14:29.093Z,7.70
2022-08-14T04:16:57.528Z,8.43
2022-08-14T04:19:28.051Z,8.13
2022-08-14T04:22:03.611Z,8.40
2022-08-14T04:24:39.219Z,8.30
2022-08-14T04:27:09.967Z,6.93
2022-08-14T04:29:42.709Z,7.60
2022-08-14T04:33:01.178Z,7.47
2022-08-14T04:35:07.436Z,7.23
2022-08-14T04:37:55.641Z,7.47
2022-08-14T04:40:55.486Z,8.23
2022-08-14T04:43:40.058Z,7.57
2022-08-14T04:46:54.831Z,7.50
2022-08-14T04:49:00.545Z,6.93
2022-08-14T04:51:30.139Z,8.13
2022-08-14T04:54:05.881Z,7.23
2022-08-14T04:56:34.798Z,7.63
2022-08-14T04:59:09.983Z,7.10
2022-08-14T05:01:45.208Z,7.53
2022-08-14T05:04:20.097Z,7.03
2022-08-14T05:06:49.836Z,7.27
2022-08-14T05:09:22.266Z,7.83
2022-08-14T05:11:51.496Z,7.23
2022-08-14T05:14:43.383Z,7.00
2022-08-14T05:17:11.946Z,7.47
2022-08-14T05:19:44.571Z,7.77
2022-08-14T05:22:27.989Z,7.33
2022-08-14T05:24:55.991Z,7.90
2022-08-14T05:27:24.273Z,8.23
2022-08-14T05:29:56.869Z,8.00
2022-08-14T05:32:28.135Z,8.63
2022-08-14T05:34:59.093Z,7.50
2022-08-14T05:37:29.672Z,8.30
2022-08-14T05:40:02.116Z,7.67
2022-08-14T05:42:32.297Z,8.10
2022-08-14T05:45:17.111Z,7.73
2022-08-14T05:47:46.410Z,7.50
2022-08-14T05:50:19.894Z,7.50
2022-08-14T05:52:50.904Z,7.73
2022-08-14T05:55:22.014Z,8.43
2022-08-14T05:57:53.855Z,10.60
2022-08-14T06:00:29.925Z,16.03
2022-08-14T06:03:06.821Z,13.10
2022-08-14T06:05:38.652Z,12.80
2022-08-14T06:08:08.858Z,9.93
2022-08-14T06:10:57.141Z,11.40
2022-08-14T06:13:31.742Z,10.30
2022-08-14T06:16:12.858Z,8.70
2022-08-14T06:18:42.186Z,9.13
2022-08-14T06:21:13.585Z,8.13
2022-08-14T06:23:41.976Z,8.80
2022-08-14T06:26:11.116Z,7.63
2022-08-14T06:28:39.057Z,8.17
2022-08-14T06:31:11.204Z,8.50
2022-08-14T06:35:02.717Z,9.20
2022-08-14T06:36:29.422Z,8.10
2022-08-14T06:38:57.553Z,9.00
2022-08-14T06:41:44.048Z,8.40
2022-08-14T06:44:13.368Z,14.17
2022-08-14T06:46:41.754Z,9.20
2022-08-14T06:49:17.314Z,11.93
2022-08-14T06:51:47.082Z,9.27
2022-08-14T06:54:18.290Z,9.10
2022-08-14T06:56:54.349Z,9.23
2022-08-14T06:59:25.015Z,8.90
2022-08-14T07:02:13.638Z,8.20
2022-08-14T07:05:05.564Z,9.20
2022-08-14T07:07:40.233Z,8.17
2022-08-14T07:10:17.062Z,8.07
2022-08-14T07:12:56.652Z,8.50
2022-08-14T07:15:33.614Z,7.60
2022-08-14T07:18:03.551Z,8.50
2022-08-14T07:20:32.224Z,7.30
2022-08-14T07:23:08.070Z,8.43
2022-08-14T07:25:40.116Z,7.90
2022-08-14T07:28:13.011Z,8.40
2022-08-14T07:30:50.874Z,7.20
2022-08-14T07:33:24.556Z,8.47
2022-08-14T07:35:58.286Z,7.90
2022-08-14T07:38:35.879Z,7.07
2022-08-14T07:41:11.638Z,8.30
2022-08-14T07:43:42.795Z,7.97
2022-08-14T07:46:12.295Z,6.93
2022-08-14T07:48:43.452Z,7.30
2022-08-14T07:51:11.548Z,7.10
2022-08-14T07:53:41.424Z,7.20
2022-08-14T07:56:36.780Z,7.40
2022-08-14T07:58:59.999Z,6.80
2022-08-14T08:01:30.868Z,7.20
2022-08-14T08:04:01.181Z,7.27
2022-08-14T08:06:30.527Z,7.67
2022-08-14T08:09:03.648Z,7.27
2022-08-14T08:11:37.450Z,6.87
2022-08-14T08:14:10.706Z,7.17
2022-08-14T08:16:47.330Z,24.53
2022-08-14T08:19:19.351Z,8.30
2022-08-14T08:21:47.980Z,7.00
2022-08-14T08:24:19.885Z,6.63
2022-08-14T08:26:50.278Z,6.97
2022-08-14T08:29:28.267Z,7.30
2022-08-14T08:32:01.903Z,7.30
2022-08-14T08:34:45.326Z,7.67
2022-08-14T08:37:14.550Z,8.17
2022-08-14T08:40:03.201Z,6.43
2022-08-14T08:42:38.469Z,7.03
2022-08-14T08:45:12.166Z,6.57
2022-08-14T08:47:41.156Z,7.87
2022-08-14T08:50:31.769Z,6.40
2022-08-14T08:53:01.897Z,8.10
2022-08-14T08:55:34.200Z,8.77
2022-08-14T08:58:05.523Z,8.67
2022-08-14T09:00:43.243Z,6.80
2022-08-14T09:03:12.861Z,6.83
2022-08-14T09:05:56.215Z,8.67
2022-08-14T09:08:31.832Z,13.93
2022-08-14T09:11:19.929Z,14.47
2022-08-14T09:13:51.485Z,18.60
2022-08-14T09:16:22.097Z,14.50
2022-08-14T09:18:53.437Z,8.33
2022-08-14T09:21:24.431Z,9.93
2022-08-14T09:24:28.314Z,10.17
2022-08-14T09:26:49.259Z,8.00
2022-08-14T09:29:19.997Z,7.20
2022-08-14T09:31:57.676Z,7.20
2022-08-14T09:34:47.484Z,7.33
2022-08-14T09:37:45.659Z,8.40
2022-08-14T09:40:26.420Z,6.67
2022-08-14T09:43:09.927Z,7.23
2022-08-14T09:45:53.242Z,7.90
2022-08-14T09:48:27.662Z,7.90
2022-08-14T09:54:18.073Z,8.20
2022-08-14T09:56:32.779Z,7.87
2022-08-14T09:59:15.022Z,8.43
2022-08-14T10:01:46.135Z,8.00
2022-08-14T10:04:33.024Z,7.57
2022-08-14T10:07:03.372Z,7.20
2022-08-14T10:09:33.427Z,7.87
2022-08-14T10:12:05.374Z,7.97
2022-08-14T10:14:37.180Z,8.37
2022-08-14T10:17:08.700Z,7.30
2022-08-14T10:19:48.151Z,7.30
2022-08-14T10:23:12.678Z,7.90
2022-08-14T10:25:14.141Z,7.63
2022-08-14T10:27:46.398Z,8.03
2022-08-14T10:30:22.823Z,8.17
2022-08-14T10:32:55.593Z,8.00
2022-08-14T10:35:31.801Z,7.90
2022-08-14T10:38:01.804Z,7.77
2022-08-14T10:40:43.560Z,8.00
2022-08-14T10:43:22.721Z,8.20
2022-08-14T10:46:21.826Z,7.90
2022-08-14T10:48:57.818Z,7.60
2022-08-14T10:51:27.107Z,8.23
2022-08-14T10:54:01.879Z,8.23
2022-08-14T10:56:45.509Z,8.40
2022-08-14T10:59:14.084Z,8.33
2022-08-14T11:01:43.780Z,8.20
2022-08-14T11:04:26.123Z,7.70
2022-08-14T11:06:57.007Z,9.13
2022-08-14T11:09:26.345Z,7.90
2022-08-14T11:12:33.172Z,7.93
2022-08-14T11:14:59.838Z,8.87
2022-08-14T11:17:33.136Z,8.13
2022-08-14T11:20:03.492Z,8.50
2022-08-14T11:22:52.720Z,8.47
2022-08-14T11:25:23.707Z,8.10
2022-08-14T11:27:55.105Z,7.70
2022-08-14T11:30:51.338Z,7.30
2022-08-14T11:33:16.370Z,7.40
2022-08-14T11:35:48.929Z,7.77
2022-08-14T11:38:21.331Z,7.63
2022-08-14T11:40:49.456Z,7.43
2022-08-14T11:43:18.358Z,7.73
2022-08-14T11:45:52.124Z,7.20
2022-08-14T11:49:03.230Z,8.80
2022-08-14T11:51:14.562Z,9.03
2022-08-14T11:53:45.745Z,8.00
2022-08-14T11:56:14.001Z,7.73
2022-08-14T11:58:44.566Z,7.67
2022-08-14T12:01:13.021Z,7.57
2022-08-14T12:03:52.081Z,7.40
2022-08-14T12:06:39.259Z,8.10
2022-08-14T12:09:08.681Z,7.40
2022-08-14T12:11:47.615Z,7.20
2022-08-14T12:14:30.981Z,6.97
2022-08-14T12:17:12.822Z,7.60
2022-08-14T12:19:50.907Z,7.50
2022-08-14T12:22:30.439Z,6.87
2022-08-14T12:24:58.584Z,8.10
2022-08-14T12:27:41.647Z,8.67
2022-08-14T12:30:21.011Z,7.03
2022-08-14T12:32:49.264Z,8.30
2022-08-14T12:35:20.299Z,7.40
2022-08-14T12:37:50.594Z,7.47
2022-08-14T12:40:24.329Z,7.93
2022-08-14T12:42:56.727Z,7.40
2022-08-14T12:45:33.476Z,7.33
2022-08-14T12:48:21.337Z,6.47
2022-08-14T12:50:53.143Z,7.33
2022-08-14T12:53:22.326Z,7.03
2022-08-14T12:56:21.716Z,7.20
2022-08-14T12:58:52.421Z,6.70
2022-08-14T13:01:22.550Z,7.10
2022-08-14T13:03:52.661Z,6.93
2022-08-14T13:06:23.183Z,7.50
2022-08-14T13:08:53.621Z,7.30
2022-08-14T13:11:36.420Z,6.83
2022-08-14T13:14:17.628Z,7.63
2022-08-14T13:16:50.373Z,7.20
2022-08-14T13:19:21.126Z,6.20
2022-08-14T13:22:04.808Z,7.10
2022-08-14T13:24:35.705Z,6.83
2022-08-14T13:27:05.090Z,6.37
2022-08-14T13:29:43.953Z,6.33
2022-08-14T13:32:15.308Z,6.80
2022-08-14T13:34:46.097Z,6.90
2022-08-14T13:37:17.218Z,6.80
2022-08-14T13:39:56.271Z,7.30
2022-08-14T13:42:30.304Z,7.30
2022-08-14T13:45:01.106Z,6.50
2022-08-14T13:47:30.871Z,6.83
2022-08-14T13:50:02.902Z,6.23
2022-08-14T13:52:52.829Z,6.70
2022-08-14T13:55:23.970Z,6.80
2022-08-14T13:58:03.402Z,10.80
2022-08-14T14:00:51.745Z,7.63
2022-08-14T14:03:23.294Z,7.00
2022-08-14T14:05:54.249Z,6.47
2022-08-14T14:08:46.303Z,5.80
2022-08-14T14:11:15.992Z,6.90
2022-08-14T14:13:45.276Z,6.73
2022-08-14T14:16:15.270Z,7.90
2022-08-14T14:18:52.059Z,9.50
2022-08-14T14:21:21.717Z,10.80
2022-08-14T14:23:51.695Z,11.00
2022-08-14T14:26:23.946Z,12.10
2022-08-14T14:28:56.398Z,9.10
2022-08-14T14:31:30.062Z,6.60
2022-08-14T14:34:01.137Z,7.23
2022-08-14T14:36:36.613Z,6.50
2022-08-14T14:39:08.056Z,6.10
2022-08-14T14:41:43.681Z,6.00
2022-08-14T14:44:15.922Z,6.63
2022-08-14T14:46:50.697Z,6.80
2022-08-14T14:49:21.522Z,6.10
2022-08-14T14:51:51.326Z,7.10
2022-08-14T14:54:31.413Z,6.97
2022-08-14T14:57:02.532Z,7.07
2022-08-14T14:59:33.401Z,7.13
2022-08-14T15:02:07.731Z,6.77
2022-08-14T15:04:38.115Z,6.07
2022-08-14T15:07:07.516Z,8.03
2022-08-14T15:09:36.933Z,4.90
2022-08-14T15:12:16.285Z,6.00
2022-08-14T15:14:56.259Z,8.90
2022-08-14T15:17:28.667Z,11.03
2022-08-14T15:20:05.309Z,12.50
2022-08-14T15:22:34.875Z,12.73
2022-08-14T15:25:04.364Z,9.53
2022-08-14T15:27:32.668Z,14.70
2022-08-14T15:30:00.638Z,11.00
2022-08-14T15:32:29.234Z,9.83
2022-08-14T15:34:58.125Z,6.20
2022-08-14T15:37:26.015Z,7.70
2022-08-14T15:40:02.019Z,8.40
2022-08-14T15:42:32.491Z,8.10
2022-08-14T15:45:01.643Z,6.30
2022-08-14T15:47:35.327Z,6.90
2022-08-14T15:50:09.971Z,5.70
2022-08-14T15:52:38.693Z,8.67
2022-08-14T15:55:10.060Z,7.30
2022-08-14T15:57:51.727Z,9.43
2022-08-14T16:00:49.595Z,6.87
2022-08-14T16:03:27.449Z,6.87
2022-08-14T16:06:04.616Z,5.60
2022-08-14T16:08:33.841Z,5.70
2022-08-14T16:11:05.098Z,5.57
2022-08-14T16:13:42.980Z,5.80
2022-08-14T16:16:34.954Z,6.50
2022-08-14T16:22:57.009Z,6.00
2022-08-14T16:24:59.755Z,5.60
2022-08-14T16:27:38.929Z,5.03
2022-08-14T16:30:24.519Z,7.37
2022-08-14T16:32:57.211Z,6.73
2022-08-14T16:35:41.827Z,6.20
2022-08-14T16:38:19.851Z,5.83
2022-08-14T16:40:23.772Z,5.67
2022-08-14T16:41:22.235Z,7.90
2022-08-14T16:43:54.024Z,6.20
2022-08-14T16:46:32.507Z,6.10
2022-08-14T16:49:01.605Z,7.33
2022-08-14T16:51:31.053Z,4.90
2022-08-14T16:54:20.939Z,6.30
2022-08-14T16:56:54.598Z,6.33
2022-08-14T16:59:30.312Z,5.43
2022-08-14T17:02:14.724Z,5.70
2022-08-14T17:04:49.256Z,6.83
2022-08-14T17:07:17.593Z,5.77
2022-08-14T17:09:48.715Z,5.70
2022-08-14T17:12:33.999Z,5.60
2022-08-14T17:15:10.630Z,5.23
2022-08-14T17:17:50.076Z,5.43
2022-08-14T17:20:54.747Z,5.40
2022-08-14T17:23:15.167Z,6.20
2022-08-14T17:25:51.078Z,5.97
2022-08-14T17:28:52.245Z,5.43
2022-08-14T17:31:09.242Z,5.30
2022-08-14T17:33:40.961Z,5.30
2022-08-14T17:36:21.321Z,5.57
2022-08-14T17:39:06.439Z,5.73
2022-08-14T17:41:43.814Z,5.33
2022-08-14T17:44:20.217Z,5.93
2022-08-14T17:46:55.339Z,6.13
2022-08-14T17:49:32.254Z,6.00
2022-08-14T17:52:03.717Z,5.60
2022-08-14T17:54:39.203Z,5.43
2022-08-14T17:57:14.397Z,5.60
2022-08-14T17:59:43.713Z,6.63
2022-08-14T18:02:16.801Z,6.53
2022-08-14T18:04:47.406Z,6.07
2022-08-14T18:07:59.551Z,6.50
2022-08-14T18:10:52.519Z,5.83
2022-08-14T18:12:59.099Z,6.40
2022-08-14T18:15:35.415Z,6.53
2022-08-14T18:18:09.012Z,6.60
2022-08-14T18:21:40.371Z,6.17
2022-08-14T18:23:28.454Z,5.60
2022-08-14T18:25:59.057Z,5.70
2022-08-14T18:28:47.816Z,5.67
2022-08-14T18:31:42.345Z,6.73
2022-08-14T18:34:32.424Z,6.90
2022-08-14T18:37:17.446Z,6.47
2022-08-14T18:40:01.459Z,6.63
2022-08-14T18:42:44.614Z,6.40
2022-08-14T18:45:18.624Z,6.67
2022-08-14T18:48:14.739Z,6.70
2022-08-14T18:50:49.062Z,6.20
2022-08-14T18:53:24.410Z,5.83
2022-08-14T18:55:59.965Z,7.03
2022-08-14T18:58:34.152Z,7.90
2022-08-14T19:01:09.020Z,7.77
2022-08-14T19:03:56.117Z,7.97
2022-08-14T19:06:40.554Z,9.00
2022-08-14T19:09:29.997Z,7.80
2022-08-14T19:11:58.000Z,9.33
2022-08-14T19:14:48.258Z,11.23
2022-08-14T19:17:42.751Z,13.50
2022-08-14T19:20:12.804Z,12.07
2022-08-14T19:22:42.783Z,12.47
2022-08-14T19:25:48.523Z,15.43
2022-08-14T19:28:31.516Z,18.00
2022-08-14T19:31:42.680Z,28.00
2022-08-14T19:34:37.639Z,36.43
2022-08-14T19:37:10.236Z,22.57
2022-08-14T19:39:53.803Z,17.23
2022-08-14T19:42:28.590Z,14.13
2022-08-14T19:44:59.179Z,10.80
2022-08-14T19:47:47.537Z,7.73
2022-08-14T19:50:38.207Z,7.07
2022-08-14T19:53:16.440Z,8.20
2022-08-14T19:55:59.173Z,8.40
2022-08-14T19:58:55.049Z,14.47
2022-08-14T20:01:37.041Z,19.83
2022-08-14T20:04:22.829Z,11.43
2022-08-14T20:07:00.113Z,9.63
2022-08-14T20:11:11.614Z,11.87
2022-08-14T20:12:34.898Z,34.50
2022-08-14T20:15:11.512Z,27.90
2022-08-14T20:17:53.045Z,18.70
2022-08-14T20:20:31.925Z,22.73
2022-08-14T20:23:02.436Z,62.03
2022-08-14T20:25:45.679Z,20.67
2022-08-14T20:28:31.907Z,11.83
2022-08-14T20:31:15.721Z,9.83
2022-08-14T20:34:06.190Z,10.67
2022-08-14T20:36:38.778Z,8.70
2022-08-14T20:39:10.100Z,7.40
2022-08-14T20:41:51.291Z,8.53
2022-08-14T20:44:38.684Z,8.50
2022-08-14T20:47:08.216Z,7.67
2022-08-14T20:49:37.246Z,6.70
2022-08-14T20:52:18.984Z,7.60
2022-08-14T20:54:51.381Z,7.53
2022-08-14T20:57:22.613Z,7.90
2022-08-14T20:59:57.158Z,7.27
2022-08-14T21:02:50.071Z,7.03
2022-08-14T21:05:22.434Z,6.70
2022-08-14T21:08:09.995Z,7.23
2022-08-14T21:10:51.449Z,7.00
2022-08-14T21:13:27.772Z,7.27
2022-08-14T21:16:34.238Z,8.67
2022-08-14T21:19:01.889Z,7.40
2022-08-14T21:21:41.168Z,7.07
2022-08-14T21:24:38.553Z,7.80
2022-08-14T21:27:09.423Z,7.33
2022-08-14T21:29:49.855Z,7.73
2022-08-14T21:32:33.824Z,7.40
2022-08-14T21:35:08.342Z,6.37
2022-08-14T21:37:46.018Z,7.37
2022-08-14T21:40:40.869Z,8.03
2022-08-14T21:43:07.349Z,8.00
2022-08-14T21:45:53.300Z,8.00
2022-08-14T21:48:25.199Z,8.00
2022-08-14T21:51:01.992Z,9.17
2022-08-14T21:53:59.122Z,8.20
2022-08-14T21:56:38.435Z,8.83
2022-08-14T21:59:18.305Z,8.27
2022-08-14T22:02:00.490Z,8.33
2022-08-14T22:04:40.746Z,8.63
2022-08-14T22:07:16.743Z,9.80
2022-08-14T22:09:55.184Z,9.27
2022-08-14T22:12:57.280Z,10.03
2022-08-14T22:15:14.709Z,8.90
2022-08-14T22:17:44.277Z,8.70
2022-08-14T22:20:16.465Z,8.80
2022-08-14T22:22:46.426Z,8.10
2022-08-14T22:25:17.271Z,9.40
2022-08-14T22:27:56.320Z,9.00
2022-08-14T22:30:26.475Z,7.90
2022-08-14T22:32:56.664Z,8.93
2022-08-14T22:35:26.701Z,8.77
2022-08-14T22:38:34.935Z,8.27
2022-08-14T22:41:03.976Z,8.17
2022-08-14T22:43:35.095Z,8.10
2022-08-14T22:46:06.175Z,8.23
2022-08-14T22:48:44.430Z,8.87
2022-08-14T22:51:13.408Z,8.23
2022-08-14T22:53:44.879Z,8.70
2022-08-14T22:56:20.819Z,9.10
2022-08-14T22:58:54.328Z,8.27
2022-08-14T23:01:55.097Z,8.93
2022-08-14T23:04:35.332Z,7.93
2022-08-14T23:07:14.718Z,8.43
2022-08-14T23:09:56.740Z,8.20
2022-08-14T23:12:31.473Z,9.73
2022-08-14T23:15:00.586Z,8.87
2022-08-14T23:17:39.493Z,8.83
2022-08-14T23:20:18.922Z,8.13
2022-08-14T23:22:52.305Z,8.40
2022-08-14T23:25:44.641Z,7.90
2022-08-14T23:28:34.217Z,8.80
2022-08-14T23:31:08.400Z,8.30
2022-08-14T23:33:45.721Z,8.10
2022-08-14T23:36:32.164Z,8.17
2022-08-14T23:39:07.305Z,7.57
2022-08-14T23:41:46.383Z,8.80
2022-08-14T23:44:21.788Z,7.60
2022-08-14T23:46:57.146Z,8.17
2022-08-14T23:49:57.054Z,8.00
2022-08-14T23:53:07.311Z,8.40
2022-08-14T23:55:11.456Z,7.90
2022-08-14T23:57:44.257Z,8.30
